Terminal Aerodrome Forecast
Issued by NWS

Home | Current Version | Previous Version | Graphics & Text | Print | Product List | Glossary On
Versions: 1 2 3 4 5 6 7 8 9 10 11 12 13 14
000
FTUS45 KGGW 172320
TAFGDV
TAF
KGDV 172320Z 1800/1824 05010G17KT P6SM VCSH SCT080 BKN120
     FM181100 VRB06KT P6SM SCT100
     FM182100 14008KT P6SM VCSH SCT080 BKN120=

USA.gov is the U.S. government's official web portal to all federal, state and local government web resources and services.